Terminal Aerodrome Forecast
Issued by NWS Shreveport, LA

Home | Current Version | Previous Version | Text Only | Print | Product List | Glossary On
Versions: 1 2 3 4 5 6 7 8 9 10 11 12 13 14 15 16
272
FTUS44 KSHV 041145
TAFELD
TAF
KELD 041145Z 0412/0512 02006KT P6SM VCSH OVC005
     FM041800 36005KT P6SM OVC010
     FM050000 01004KT P6SM BKN010 OVC020
     FM050900 05009KT 5SM BR VCSH BKN009 OVC015=

USA.gov is the U.S. government's official web portal to all federal, state and local government web resources and services.